Apostoles, Argentina
Current Conditions -  °F | °C
As of 1:00 PM on Saturday 25 Oct 2014 (Local Time) from SARP Reporting Station
Few Clouds Few Clouds  
Wind Chill: 93°   Ceiling: Unl
Heat Index: 95°   Visibility: 6mi
Dew Point: 64°   Wind: 3mph
Humidity: 38%   Direction: 360°N
Pressure: 29.88"   Gusts: NA
Location:  27.92°S, 55.77°W
Report Text: SARP 251600Z 36003KT 9999 FEW020 34/18 Q1012
Loading
Personal Weather Stations






























Interactive Weather Map
Tropical Storm Tracking
New forecast layout! Learn more

10-Day Weather Forecast

Advertisements
Track Severe Weather on mobile